Time;durP1;ratioP1;P1;durP2;ratioP2;P2;SDS_P1;SDS_P2;PMS_P1;PMS_P2;Temp;Humidity;BMP_temperature;BMP_pressure;BME280_temperature;BME280_humidity;BME280_pressure;Samples;Min_cycle;Max_cycle;Signal;HPM_P1;HPM_P2
2022/04/12 00:01:31;;;;;;;37.58;21.98;;;;;;;3.08;71.60;100876.25;5096479;28;20165;-66
2022/04/12 00:03:57;;;;;;;37.95;21.10;;;;;;;3.02;71.48;100879.22;5101793;28;20118;-66
2022/04/12 00:06:22;;;;;;;40.90;21.63;;;;;;;2.99;71.64;100879.34;5077752;28;20502;-66
2022/04/12 00:08:48;;;;;;;35.75;21.02;;;;;;;2.93;71.21;100877.03;5098158;28;20522;-66
2022/04/12 00:11:13;;;;;;;39.17;21.00;;;;;;;2.88;70.99;100882.53;5104532;28;20031;-66
2022/04/12 00:13:38;;;;;;;40.08;23.80;;;;;;;2.84;71.27;100877.47;5077944;28;20043;-66
2022/04/12 00:16:04;;;;;;;39.88;21.77;;;;;;;2.86;71.59;100891.47;5098062;28;20016;-66
2022/04/12 00:21:14;;;;;;;40.35;22.80;;;;;;;2.83;73.57;100887.19;5093304;28;20047;-68
2022/04/12 00:23:40;;;;;;;36.72;21.20;;;;;;;2.87;74.54;100877.31;5105771;28;20344;-66
2022/04/12 00:26:05;;;;;;;38.13;20.17;;;;;;;2.90;74.77;100882.47;5097583;28;20386;-66
2022/04/12 00:28:31;;;;;;;33.88;20.02;;;;;;;2.90;75.44;100877.16;5100207;28;20047;-67
2022/04/12 00:30:56;;;;;;;31.48;19.83;;;;;;;2.97;75.60;100887.38;5103750;28;20101;-66
2022/04/12 00:33:22;;;;;;;39.95;20.77;;;;;;;2.97;75.77;100866.19;5095952;28;20595;-68
2022/04/12 00:35:47;;;;;;;35.45;19.80;;;;;;;2.99;75.97;100869.63;5104977;28;20031;-68
2022/04/12 00:38:22;;;;;;;37.13;21.45;;;;;;;2.99;76.25;100855.50;5098244;28;20059;-68
2022/04/12 00:40:48;;;;;;;40.45;20.77;;;;;;;3.10;77.00;100871.75;5104432;28;20082;-68
2022/04/12 00:43:16;;;;;;;36.00;21.65;;;;;;;3.06;77.01;100856.97;5100951;28;20035;-67
2022/04/12 00:45:42;;;;;;;38.08;21.65;;;;;;;3.16;76.87;100861.72;5092193;28;20495;-67
2022/04/12 00:48:07;;;;;;;36.13;21.85;;;;;;;3.19;77.54;100850.13;5103203;28;20039;-68
2022/04/12 00:50:33;;;;;;;35.60;21.10;;;;;;;3.15;77.73;100838.81;5100496;28;20031;-68
2022/04/12 00:52:59;;;;;;;41.63;22.30;;;;;;;3.30;77.82;100856.59;5096391;28;20054;-68
2022/04/12 00:55:24;;;;;;;34.92;21.40;;;;;;;3.27;77.43;100843.50;5078612;28;20383;-68
2022/04/12 00:57:51;;;;;;;37.47;22.58;;;;;;;3.30;77.75;100843.34;5100491;28;20443;-68
2022/04/12 01:00:17;;;;;;;36.95;20.50;;;;;;;3.34;77.62;100839.59;5098257;28;20102;-67
2022/04/12 01:02:43;;;;;;;35.35;20.58;;;;;;;3.32;77.69;100833.50;5102446;28;20131;-67
2022/04/12 01:05:09;;;;;;;36.20;20.52;;;;;;;3.43;77.78;100838.28;5101599;28;20020;-69
2022/04/12 01:07:36;;;;;;;38.00;21.33;;;;;;;3.44;78.00;100842.63;5104484;28;20031;-68
2022/04/12 01:10:03;;;;;;;34.97;21.70;;;;;;;3.46;77.60;100844.31;5107413;28;20042;-69
2022/04/12 01:12:30;;;;;;;35.85;20.30;;;;;;;3.44;77.30;100838.22;5108783;28;20648;-68
2022/04/12 01:15:14;;;;;;;39.15;22.00;;;;;;;3.43;77.33;100830.34;5088005;28;20031;-68
2022/04/12 01:17:43;;;;;;;38.95;21.00;;;;;;;3.43;77.14;100828.56;5104177;28;20051;-67
2022/04/12 01:20:10;;;;;;;39.97;21.75;;;;;;;3.47;76.37;100837.19;5106128;28;20079;-67
2022/04/12 01:22:59;;;;;;;37.20;21.35;;;;;;;3.48;75.93;100834.47;5105774;28;20490;-67
2022/04/12 01:25:25;;;;;;;39.47;22.17;;;;;;;3.52;76.09;100841.31;5052948;28;20071;-68
2022/04/12 01:27:51;;;;;;;41.35;22.52;;;;;;;3.50;76.37;100826.44;5099547;28;20494;-68
2022/04/12 01:30:16;;;;;;;43.78;24.23;;;;;;;3.47;76.57;100835.41;5099230;28;20055;-68
2022/04/12 01:32:42;;;;;;;42.60;22.83;;;;;;;3.47;76.73;100835.41;5099623;28;20023;-67
2022/04/12 01:35:08;;;;;;;39.63;22.60;;;;;;;3.49;76.44;100838.84;5099395;28;20027;-68
2022/04/12 01:37:33;;;;;;;42.83;23.90;;;;;;;3.46;76.65;100832.81;5101542;28;20032;-67
2022/04/12 01:39:59;;;;;;;41.45;22.27;;;;;;;3.40;76.70;100833.13;5086897;28;20444;-68
2022/04/12 01:42:24;;;;;;;42.03;24.00;;;;;;;3.43;76.41;100830.34;5100717;28;20390;-68
2022/04/12 01:44:50;;;;;;;39.25;22.35;;;;;;;3.38;76.50;100822.59;5100323;28;20170;-68
2022/04/12 01:47:17;;;;;;;44.22;24.27;;;;;;;3.36;75.82;100837.75;5102093;28;20024;-67
2022/04/12 01:49:42;;;;;;;54.50;25.98;;;;;;;3.29;75.51;100831.00;5098214;28;20020;-68
2022/04/12 01:52:10;;;;;;;45.35;24.55;;;;;;;3.19;75.11;100824.47;5109016;28;20093;-68
2022/04/12 01:54:36;;;;;;;49.13;25.20;;;;;;;3.26;75.04;100849.72;5107788;28;20035;-69
2022/04/12 01:57:01;;;;;;;41.92;23.70;;;;;;;3.21;75.12;100837.63;5097439;28;20051;-68
2022/04/12 01:59:27;;;;;;;46.10;25.20;;;;;;;3.28;75.14;100812.53;5095473;28;20032;-68
2022/04/12 02:01:52;;;;;;;42.08;24.27;;;;;;;3.23;75.55;100818.09;5099597;28;20504;-67
2022/04/12 02:04:18;;;;;;;46.30;24.45;;;;;;;3.20;75.66;100823.53;5100449;28;20067;-68
2022/04/12 02:06:43;;;;;;;44.25;24.30;;;;;;;3.18;76.11;100837.78;5101881;28;20398;-68
2022/04/12 02:09:09;;;;;;;47.45;24.75;;;;;;;3.08;76.65;100823.28;5081528;28;20024;-68
2022/04/12 02:11:34;;;;;;;49.55;26.30;;;;;;;3.14;77.33;100830.94;5103292;28;20032;-68
2022/04/12 02:14:00;;;;;;;41.95;23.98;;;;;;;3.07;77.03;100818.91;5108406;28;20027;-68
2022/04/12 02:16:25;;;;;;;46.15;24.83;;;;;;;3.11;78.21;100828.44;5102889;28;20491;-67
2022/04/12 02:18:51;;;;;;;42.38;23.77;;;;;;;3.14;79.05;100838.88;5096930;28;20059;-69
2022/04/12 02:21:16;;;;;;;41.35;24.20;;;;;;;3.02;79.12;100807.66;5078654;28;20483;-68
2022/04/12 02:23:41;;;;;;;48.25;25.73;;;;;;;3.16;79.20;100831.72;5102849;28;20035;-65
2022/04/12 02:26:07;;;;;;;43.60;25.27;;;;;;;2.63;79.50;100736.34;5102278;28;20077;-66
2022/04/12 02:28:32;;;;;;;41.92;24.15;;;;;;;3.18;80.13;100829.84;5099828;28;20028;-66
2022/04/12 02:30:58;;;;;;;45.78;24.52;;;;;;;3.23;80.07;100828.69;5074042;28;20016;-66
2022/04/12 02:33:23;;;;;;;44.40;24.98;;;;;;;3.24;80.44;100822.44;5100226;28;20469;-67
2022/04/12 02:35:49;;;;;;;42.85;25.77;;;;;;;3.29;80.48;100831.00;5095866;28;20107;-67
2022/04/12 02:38:15;;;;;;;40.53;23.95;;;;;;;3.32;80.81;100827.38;5096635;28;20039;-66
2022/04/12 02:40:40;;;;;;;45.92;24.50;;;;;;;3.31;80.92;100817.69;5104414;28;20039;-67
2022/04/12 02:43:05;;;;;;;46.90;25.60;;;;;;;3.22;80.89;100796.97;5088165;28;20077;-66
2022/04/12 02:45:31;;;;;;;42.95;24.00;;;;;;;3.38;80.99;100821.75;5100488;28;20103;-66
2022/04/12 02:47:56;;;;;;;40.58;24.77;;;;;;;3.38;80.97;100814.66;5108082;28;20151;-66
2022/04/12 02:50:22;;;;;;;44.72;24.63;;;;;;;3.49;80.89;100830.03;5099878;28;20039;-66
2022/04/12 02:52:48;;;;;;;43.22;24.60;;;;;;;3.52;80.48;100824.56;5097314;28;20028;-65
2022/04/12 02:55:13;;;;;;;52.63;25.58;;;;;;;3.55;80.06;100825.25;5093933;28;20475;-68
2022/04/12 02:57:39;;;;;;;43.95;24.98;;;;;;;3.58;79.04;100818.97;5101164;28;20022;-67
2022/04/12 03:00:06;;;;;;;42.33;24.58;;;;;;;3.62;79.19;100828.47;5097774;28;20036;-67
2022/04/12 03:02:32;;;;;;;50.15;26.13;;;;;;;3.61;78.32;100824.94;5097292;28;20031;-68
2022/04/12 03:04:57;;;;;;;48.53;27.13;;;;;;;3.62;78.09;100828.47;5097536;28;20591;-68
2022/04/12 03:07:22;;;;;;;46.08;26.13;;;;;;;3.62;78.31;100829.34;5076699;28;20031;-68
2022/04/12 03:09:49;;;;;;;50.10;26.75;;;;;;;3.66;78.07;100844.16;5096514;28;20020;-67
2022/04/12 03:12:15;;;;;;;55.03;26.98;;;;;;;3.65;78.12;100830.97;5097661;28;20028;-68
2022/04/12 03:14:40;;;;;;;50.05;26.85;;;;;;;3.71;78.37;100839.44;5079228;28;20035;-67
2022/04/12 03:17:06;;;;;;;51.42;27.10;;;;;;;3.74;78.28;100839.28;5100114;28;20044;-67
2022/04/12 03:19:31;;;;;;;49.65;26.20;;;;;;;3.77;77.89;100840.94;5100120;28;20081;-68
2022/04/12 03:21:57;;;;;;;53.03;28.23;;;;;;;3.79;76.79;100844.34;5100769;28;20039;-67
2022/04/12 03:24:22;;;;;;;49.88;27.77;;;;;;;3.80;76.04;100840.75;5104261;28;20386;-68
2022/04/12 03:26:49;;;;;;;59.25;27.58;;;;;;;3.82;76.09;100846.84;5101220;28;20043;-66
2022/04/12 03:29:15;;;;;;;61.65;29.75;;;;;;;3.83;76.73;100840.59;5092524;28;20099;-67
2022/04/12 03:31:40;;;;;;;70.07;33.05;;;;;;;3.86;77.11;100845.75;5106028;28;20448;-67
2022/04/12 03:34:06;;;;;;;62.33;30.30;;;;;;;3.95;77.21;100853.25;5097242;28;20030;-66
2022/04/12 03:36:31;;;;;;;64.85;31.73;;;;;;;3.95;77.74;100854.09;5095294;28;20028;-66
2022/04/12 03:38:57;;;;;;;57.72;31.63;;;;;;;3.82;78.49;100823.84;5074831;28;20031;-66
2022/04/12 03:41:23;;;;;;;55.75;30.77;;;;;;;4.00;78.71;100851.22;5101048;28;20039;-66
2022/04/12 03:43:50;;;;;;;57.58;31.25;;;;;;;3.97;78.46;100846.91;5098451;28;20536;-66
2022/04/12 03:46:15;;;;;;;62.10;31.08;;;;;;;4.03;78.89;100857.19;5090254;28;20471;-67
2022/04/12 03:48:41;;;;;;;52.88;27.75;;;;;;;4.05;78.17;100855.34;5098455;28;20032;-66
2022/04/12 03:51:06;;;;;;;54.42;27.63;;;;;;;4.07;78.38;100850.78;5096497;28;20384;-66
2022/04/12 03:53:32;;;;;;;48.92;25.83;;;;;;;4.12;78.31;100854.06;5097016;28;20557;-67
2022/04/12 03:55:58;;;;;;;51.70;25.40;;;;;;;4.13;77.61;100853.13;5082634;28;20023;-66
2022/04/12 03:58:23;;;;;;;46.58;24.90;;;;;;;4.11;76.89;100840.88;5101500;28;20076;-66
2022/04/12 04:00:49;;;;;;;42.70;23.58;;;;;;;4.17;76.68;100852.03;5078212;28;20035;-68
2022/04/12 04:03:18;;;;;;;45.47;22.80;;;;;;;4.12;76.68;100839.94;5097281;28;20104;-68
2022/04/12 04:05:44;;;;;;;44.10;23.08;;;;;;;4.17;76.50;100835.25;5098595;28;20023;-68
2022/04/12 04:08:10;;;;;;;42.58;22.85;;;;;;;4.26;76.82;100853.34;5082769;28;20491;-68
2022/04/12 04:10:36;;;;;;;54.45;22.50;;;;;;;4.31;77.38;100853.94;5102222;28;20035;-68
2022/04/12 04:13:04;;;;;;;40.10;22.08;;;;;;;4.36;76.82;100854.56;5079767;28;20460;-68
2022/04/12 04:15:31;;;;;;;47.47;22.02;;;;;;;4.30;76.30;100836.31;5099180;28;20684;-68
2022/04/12 04:17:57;;;;;;;34.88;19.65;;;;;;;4.42;75.92;100854.25;5094631;28;20044;-69
2022/04/12 04:20:22;;;;;;;35.97;18.85;;;;;;;4.41;75.93;100841.88;5098675;28;20023;-69
2022/04/12 04:22:48;;;;;;;40.92;20.45;;;;;;;4.47;74.82;100852.19;5081327;28;20024;-68
2022/04/12 04:25:14;;;;;;;40.80;21.48;;;;;;;4.45;74.52;100843.44;5094954;28;20030;-68
2022/04/12 04:27:41;;;;;;;38.65;20.40;;;;;;;4.47;74.51;100838.91;5098241;28;20035;-68
2022/04/12 04:30:08;;;;;;;40.58;22.05;;;;;;;4.61;75.15;100852.25;5103439;28;20026;-68
2022/04/12 04:32:34;;;;;;;37.72;21.48;;;;;;;4.61;75.83;100852.25;5096015;28;20031;-68
2022/04/12 04:35:00;;;;;;;37.65;21.25;;;;;;;4.67;75.27;100852.81;5100466;28;20019;-68
2022/04/12 04:37:25;;;;;;;42.50;20.75;;;;;;;4.69;74.49;100850.06;5095550;28;20096;-68
2022/04/12 04:39:51;;;;;;;38.03;20.73;;;;;;;4.75;73.74;100866.50;5100099;28;20024;-69
2022/04/12 04:42:20;;;;;;;34.53;18.90;;;;;;;4.79;74.14;100867.22;5100734;28;20031;-68
2022/04/12 04:44:46;;;;;;;39.28;20.85;;;;;;;4.77;74.78;100858.44;5085942;28;20038;-69
2022/04/12 04:47:11;;;;;;;33.92;18.85;;;;;;;4.86;74.63;100865.91;5103571;28;20387;-68
2022/04/12 04:49:37;;;;;;;38.47;20.35;;;;;;;4.87;75.01;100872.94;5100898;28;20055;-69
2022/04/12 04:52:02;;;;;;;37.75;20.30;;;;;;;4.90;75.15;100869.28;5100391;28;20476;-69
2022/04/12 04:54:28;;;;;;;42.80;20.88;;;;;;;4.87;75.66;100857.00;5097425;28;20088;-68
2022/04/12 04:56:53;;;;;;;42.00;22.50;;;;;;;4.98;76.36;100867.03;5092921;28;20032;-69
2022/04/12 04:59:19;;;;;;;42.33;21.00;;;;;;;4.91;76.77;100860.34;5097965;28;20016;-69
2022/04/12 05:01:44;;;;;;;40.88;21.27;;;;;;;5.05;77.30;100874.56;5073933;28;20040;-68
2022/04/12 05:04:09;;;;;;;38.40;21.00;;;;;;;5.06;77.47;100876.28;5104343;28;20081;-69
2022/04/12 05:06:35;;;;;;;35.20;21.08;;;;;;;4.98;77.70;100862.59;5100528;28;20023;-69
2022/04/12 05:09:00;;;;;;;39.97;22.48;;;;;;;5.09;78.81;100875.28;5101761;28;20031;-68
2022/04/12 05:11:26;;;;;;;56.72;24.20;;;;;;;5.09;79.06;100867.31;5077161;28;20036;-68
2022/04/12 05:13:52;;;;;;;43.55;23.88;;;;;;;5.16;79.11;100877.47;5109461;28;20401;-69
2022/04/12 05:16:17;;;;;;;39.00;22.00;;;;;;;5.21;77.02;100883.41;5103743;28;20028;-69
2022/04/12 05:18:43;;;;;;;42.35;24.65;;;;;;;5.20;75.28;100881.69;5097829;28;20038;-68
2022/04/12 05:21:08;;;;;;;38.67;22.88;;;;;;;5.18;75.24;100875.59;5101988;28;20407;-68
2022/04/12 05:23:33;;;;;;;41.85;21.48;;;;;;;5.20;74.36;100881.69;5075474;28;20086;-68
2022/04/12 05:25:59;;;;;;;42.92;22.10;;;;;;;5.24;73.97;100885.88;5101777;28;20032;-69
2022/04/12 05:28:25;;;;;;;47.17;22.98;;;;;;;5.25;73.78;100881.44;5098716;28;20032;-68
2022/04/12 05:30:50;;;;;;;42.08;23.15;;;;;;;5.33;74.55;100887.16;5104920;28;20028;-68
2022/04/12 05:33:16;;;;;;;51.40;23.80;;;;;;;5.35;74.79;100888.78;5082264;28;20015;-68
2022/04/12 05:35:41;;;;;;;52.00;24.38;;;;;;;5.41;74.29;100895.53;5100954;28;20031;-68
2022/04/12 05:38:07;;;;;;;45.30;25.83;;;;;;;5.44;74.32;100900.69;5105104;28;20471;-69
2022/04/12 05:40:34;;;;;;;48.85;25.33;;;;;;;5.49;74.61;100906.63;5103570;28;20093;-68
2022/04/12 05:42:59;;;;;;;44.75;24.00;;;;;;;5.48;74.56;100897.78;5100064;28;20480;-68
2022/04/12 05:45:25;;;;;;;48.00;25.70;;;;;;;5.59;74.24;100903.34;5098118;28;20038;-68
2022/04/12 05:47:54;;;;;;;50.80;24.98;;;;;;;5.68;74.53;100910.75;5099503;28;20086;-68
2022/04/12 05:50:27;;;;;;;42.33;23.27;;;;;;;5.71;75.77;100910.59;5081545;28;20118;-68
2022/04/12 05:52:53;;;;;;;38.75;22.02;;;;;;;5.81;75.87;100914.47;5084830;28;20059;-70
2022/04/12 05:55:21;;;;;;;43.53;22.35;;;;;;;5.83;76.25;100914.38;5100124;28;20038;-68
2022/04/12 05:57:55;;;;;;;34.92;18.58;;;;;;;5.91;75.39;100920.97;5099240;28;20027;-68
2022/04/12 06:00:21;;;;;;;32.00;18.80;;;;;;;5.98;75.14;100924.13;5103656;28;20046;-69
2022/04/12 06:02:48;;;;;;;31.58;18.48;;;;;;;5.98;74.33;100910.81;5106744;28;20080;-69
2022/04/12 06:05:14;;;;;;;33.17;18.02;;;;;;;6.13;73.80;100924.06;5093223;28;20103;-68
2022/04/12 06:07:41;;;;;;;30.00;16.73;;;;;;;6.26;73.33;100922.38;5096209;28;20106;-68
2022/04/12 06:10:11;;;;;;;29.80;17.23;;;;;;;6.45;72.28;100927.47;5103772;28;20160;-68
2022/04/12 06:12:38;;;;;;;26.25;16.58;;;;;;;6.64;70.89;100923.53;5102805;28;20039;-70
2022/04/12 06:15:05;;;;;;;30.15;16.00;;;;;;;6.92;68.83;100942.22;5097779;28;20032;-69
2022/04/12 06:17:35;;;;;;;29.08;16.45;;;;;;;7.13;66.77;100932.00;5102367;28;20739;-68
2022/04/12 06:20:07;;;;;;;27.73;15.70;;;;;;;7.31;64.21;100929.94;5082593;28;20062;-69
2022/04/12 06:22:32;;;;;;;24.77;16.40;;;;;;;7.55;62.71;100945.22;5106318;28;20042;-70
2022/04/12 06:24:58;;;;;;;27.00;16.90;;;;;;;7.70;61.49;100938.88;5105694;28;20023;-69
2022/04/12 06:27:36;;;;;;;30.20;17.25;;;;;;;7.90;60.43;100940.22;5100855;28;20028;-69
2022/04/12 06:30:07;;;;;;;29.08;16.52;;;;;;;8.10;59.78;100934.38;5103588;28;20019;-68
2022/04/12 06:32:34;;;;;;;30.35;15.40;;;;;;;8.28;58.90;100936.69;5099765;28;20122;-69
2022/04/12 06:35:00;;;;;;;30.45;16.50;;;;;;;8.48;58.54;100932.66;5100532;28;20031;-69
2022/04/12 06:37:27;;;;;;;36.95;17.98;;;;;;;8.72;57.18;100941.63;5098932;28;20027;-69
2022/04/12 06:39:53;;;;;;;31.83;18.08;;;;;;;8.95;56.47;100951.56;5077634;28;20097;-69
2022/04/12 06:42:19;;;;;;;30.60;18.10;;;;;;;9.11;56.38;100949.50;5097619;28;20048;-70
2022/04/12 06:44:45;;;;;;;30.25;17.00;;;;;;;9.32;56.23;100950.59;5106119;28;20034;-69
2022/04/12 06:47:10;;;;;;;30.73;16.13;;;;;;;9.56;55.01;100948.81;5103216;28;20032;-69
2022/04/12 06:49:35;;;;;;;26.10;15.13;;;;;;;9.85;54.37;100944.84;5103261;28;20491;-69
2022/04/12 06:52:01;;;;;;;27.45;15.20;;;;;;;10.18;52.63;100955.72;5105123;28;20023;-69
2022/04/12 06:54:27;;;;;;;23.85;14.98;;;;;;;10.39;51.21;100959.47;5093815;28;20024;-69
2022/04/12 06:56:53;;;;;;;25.20;15.00;;;;;;;10.51;51.02;100939.72;5080986;28;20028;-69
2022/04/12 06:59:18;;;;;;;28.27;14.50;;;;;;;10.78;50.61;100955.50;5101986;28;20024;-69
2022/04/12 07:01:44;;;;;;;22.27;12.90;;;;;;;11.07;50.18;100956.72;5079466;28;20040;-69
2022/04/12 07:04:09;;;;;;;19.45;13.85;;;;;;;11.25;48.63;100961.47;5099957;28;20028;-68
2022/04/12 07:06:35;;;;;;;25.48;13.77;;;;;;;11.47;47.68;100958.78;5097813;28;20024;-70
2022/04/12 07:09:01;;;;;;;21.00;12.15;;;;;;;11.69;47.71;100957.91;5105676;28;20016;-69
2022/04/12 07:11:26;;;;;;;24.02;12.48;;;;;;;12.03;47.36;100969.41;5097649;28;20039;-69
2022/04/12 07:13:51;;;;;;;17.88;11.55;;;;;;;12.25;46.28;100950.47;5095025;28;20023;-70
2022/04/12 07:16:17;;;;;;;23.77;13.57;;;;;;;12.53;45.34;100957.88;5076660;28;20095;-69
2022/04/12 07:18:42;;;;;;;22.35;12.48;;;;;;;12.81;44.32;100963.47;5081101;28;20108;-69
2022/04/12 07:21:08;;;;;;;23.88;13.88;;;;;;;12.94;43.78;100942.56;5099101;28;20028;-69
2022/04/12 07:23:36;;;;;;;21.17;12.40;;;;;;;13.22;43.66;100954.50;5083447;28;20086;-70
2022/04/12 07:26:04;;;;;;;20.70;12.02;;;;;;;13.53;42.94;100957.00;5101594;28;20107;-69
2022/04/12 07:28:30;;;;;;;18.60;11.30;;;;;;;13.76;41.59;100954.06;5101164;28;20072;-70
2022/04/12 07:30:56;;;;;;;21.13;12.68;;;;;;;13.90;41.14;100942.88;5076427;28;20396;-70
2022/04/12 07:33:21;;;;;;;17.20;10.10;;;;;;;14.08;40.25;100947.41;5083761;28;20433;-69
2022/04/12 07:35:47;;;;;;;14.82;9.20;;;;;;;14.31;38.37;100946.16;5094884;28;20020;-70
2022/04/12 07:38:12;;;;;;;15.45;8.63;;;;;;;14.50;38.41;100953.38;5098920;28;20035;-67
2022/04/12 07:40:38;;;;;;;16.90;9.63;;;;;;;14.68;37.97;100952.50;5103022;28;20537;-69
2022/04/12 07:43:03;;;;;;;17.77;9.63;;;;;;;14.87;38.42;100946.22;5078695;28;20036;-69
2022/04/12 07:45:29;;;;;;;15.18;9.63;;;;;;;15.09;38.37;100951.25;5078161;28;20028;-69
2022/04/12 07:47:54;;;;;;;11.35;8.02;;;;;;;15.29;37.92;100952.88;5083846;28;20503;-69
2022/04/12 07:50:20;;;;;;;12.88;8.88;;;;;;;15.49;35.97;100947.25;5099902;28;20030;-69
2022/04/12 07:52:45;;;;;;;11.02;8.00;;;;;;;15.64;36.39;100948.44;5096208;28;20035;-69
2022/04/12 07:55:10;;;;;;;11.80;7.65;;;;;;;15.85;34.93;100948.16;5099382;28;20030;-70
2022/04/12 07:57:36;;;;;;;10.35;7.22;;;;;;;16.04;35.25;100952.56;5102084;28;20046;-69
2022/04/12 08:00:03;;;;;;;10.27;6.15;;;;;;;16.23;34.27;100945.16;5099783;28;20536;-69
2022/04/12 08:02:28;;;;;;;8.48;6.38;;;;;;;16.46;34.06;100953.66;5095741;28;20039;-69
2022/04/12 08:04:55;;;;;;;9.35;6.47;;;;;;;16.71;32.92;100947.44;5101279;28;20335;-69
2022/04/12 08:07:20;;;;;;;9.23;6.53;;;;;;;16.93;32.74;100950.44;5101045;28;20063;-69
2022/04/12 08:09:46;;;;;;;8.57;6.32;;;;;;;17.19;31.58;100945.84;5095989;28;20058;-69
2022/04/12 08:12:12;;;;;;;9.52;6.90;;;;;;;17.55;32.05;100952.84;5096473;28;20833;-69
2022/04/12 08:14:37;;;;;;;11.38;6.50;;;;;;;18.04;31.11;100953.81;5098027;28;20039;-69
2022/04/12 08:17:03;;;;;;;8.38;5.53;;;;;;;18.80;29.51;100947.06;5105826;28;20443;-69
2022/04/12 08:19:29;;;;;;;8.93;5.38;;;;;;;19.71;27.14;100948.34;5102907;28;20042;-69
2022/04/12 08:21:54;;;;;;;7.63;5.25;;;;;;;20.51;26.25;100941.53;5082534;28;20146;-70
2022/04/12 08:24:21;;;;;;;6.80;5.45;;;;;;;21.64;25.62;100950.22;5090734;28;20031;-70
2022/04/12 08:26:47;;;;;;;7.72;5.32;;;;;;;22.75;24.31;100954.19;5102455;28;20028;-67
2022/04/12 08:29:13;;;;;;;7.72;4.97;;;;;;;23.72;22.33;100941.16;5104766;28;20034;-67
2022/04/12 08:31:39;;;;;;;5.88;5.13;;;;;;;24.80;21.90;100944.59;5100995;28;20036;-67
2022/04/12 08:34:05;;;;;;;7.20;5.15;;;;;;;25.73;20.92;100935.97;5103076;28;20156;-68
2022/04/12 08:36:30;;;;;;;7.07;4.85;;;;;;;26.43;19.80;100939.41;5097681;28;20495;-69
2022/04/12 08:38:56;;;;;;;6.13;4.70;;;;;;;26.73;19.85;100920.38;5105092;28;20027;-67
2022/04/12 08:41:23;;;;;;;6.90;4.50;;;;;;;27.31;18.75;100940.16;5097484;28;20046;-68
2022/04/12 08:43:55;;;;;;;5.80;4.90;;;;;;;27.76;18.83;100947.88;5098376;28;20042;-68
2022/04/12 08:46:25;;;;;;;7.47;4.50;;;;;;;28.09;18.05;100937.28;5107272;28;20032;-68
2022/04/12 08:48:52;;;;;;;6.97;4.85;;;;;;;28.42;17.72;100932.16;5101498;28;20032;-69
2022/04/12 08:51:17;;;;;;;7.38;4.65;;;;;;;28.81;17.54;100938.13;5099974;28;20020;-69
2022/04/12 08:53:45;;;;;;;4.85;4.10;;;;;;;28.87;17.57;100926.13;5104667;28;20027;-68
2022/04/12 08:56:12;;;;;;;4.90;3.65;;;;;;;29.20;17.10;100934.69;5086017;28;20114;-68
2022/04/12 08:58:37;;;;;;;4.22;3.58;;;;;;;29.19;16.53;100920.03;5102220;28;20027;-68
2022/04/12 09:01:03;;;;;;;5.57;3.63;;;;;;;29.07;16.70;100929.41;5104037;28;20023;-69
2022/04/12 09:03:28;;;;;;;4.15;3.38;;;;;;;29.08;16.60;100926.38;5104744;28;20153;-69
2022/04/12 09:05:54;;;;;;;5.93;3.53;;;;;;;28.95;16.09;100928.53;5102640;28;20034;-68
2022/04/12 09:08:31;;;;;;;4.55;3.10;;;;;;;28.82;16.54;100931.53;5082917;28;20066;-68
2022/04/12 09:11:05;;;;;;;6.85;3.65;;;;;;;27.72;17.25;100941.16;5100228;28;20028;-68
2022/04/12 09:13:31;;;;;;;5.15;4.18;;;;;;;26.49;17.94;100918.41;5104780;28;20051;-69
2022/04/12 09:15:58;;;;;;;6.70;4.53;;;;;;;25.99;18.42;100931.22;5103435;28;20377;-70
2022/04/12 09:18:41;;;;;;;4.68;3.88;;;;;;;24.75;20.10;100930.66;5108223;28;20044;-70
2022/04/12 09:21:13;;;;;;;4.60;3.75;;;;;;;23.90;20.72;100938.69;5078171;28;20034;-70
2022/04/12 09:24:02;;;;;;;7.60;3.97;;;;;;;23.23;21.11;100939.63;5099107;28;20026;-70
2022/04/12 09:26:30;;;;;;;5.22;3.88;;;;;;;22.52;21.81;100938.00;5101376;28;20113;-70
2022/04/12 09:28:58;;;;;;;5.07;4.00;;;;;;;22.38;21.83;100927.13;5104522;28;20035;-69
2022/04/12 09:31:24;;;;;;;5.32;4.07;;;;;;;21.95;22.15;100924.38;5083358;28;20035;-69
2022/04/12 09:33:52;;;;;;;6.38;3.97;;;;;;;21.55;23.03;100921.31;5103119;28;20032;-69
2022/04/12 09:36:18;;;;;;;7.45;4.00;;;;;;;21.06;23.61;100907.44;5099674;28;20410;-69
2022/04/12 09:38:46;;;;;;;6.20;4.32;;;;;;;20.79;24.14;100918.94;5085283;28;20552;-70
2022/04/12 09:41:32;;;;;;;5.10;4.28;;;;;;;20.49;23.81;100917.19;5101640;28;20031;-70
2022/04/12 09:44:07;;;;;;;5.38;4.43;;;;;;;20.16;24.79;100904.88;5092395;28;20038;-70
2022/04/12 09:46:34;;;;;;;5.15;4.05;;;;;;;19.91;24.96;100908.75;5098851;28;20035;-69
2022/04/12 09:49:00;;;;;;;6.32;4.43;;;;;;;19.77;25.58;100914.97;5106011;28;20031;-70
2022/04/12 09:51:26;;;;;;;7.97;4.78;;;;;;;19.73;24.94;100916.34;5103045;28;20042;-69
2022/04/12 09:53:51;;;;;;;7.15;4.72;;;;;;;19.62;25.24;100914.03;5097846;28;20024;-68
2022/04/12 09:56:24;;;;;;;5.75;3.92;;;;;;;19.43;26.22;100898.13;5082842;28;20027;-69
2022/04/12 09:59:00;;;;;;;6.38;4.28;;;;;;;19.34;26.00;100902.75;5096310;28;20032;-68
2022/04/12 10:01:27;;;;;;;7.75;4.32;;;;;;;19.20;26.16;100903.47;5096249;28;20069;-68
2022/04/12 10:03:56;;;;;;;7.53;4.78;;;;;;;19.15;25.86;100908.59;5106266;28;20055;-69
2022/04/12 10:06:28;;;;;;;7.30;4.20;;;;;;;19.04;26.24;100910.84;5101196;28;20023;-69
2022/04/12 10:09:01;;;;;;;8.98;5.10;;;;;;;19.09;25.50;100901.13;5080412;28;20427;-69
2022/04/12 10:11:26;;;;;;;6.63;4.37;;;;;;;18.87;25.85;100891.00;5101205;28;20088;-69
2022/04/12 10:13:53;;;;;;;5.82;4.50;;;;;;;18.71;26.79;100882.03;5103256;28;20662;-69
2022/04/12 10:16:22;;;;;;;7.40;4.60;;;;;;;18.63;26.33;100896.47;5100980;28;20118;-69
2022/04/12 10:18:48;;;;;;;6.22;4.65;;;;;;;18.66;26.52;100890.72;5081036;28;20501;-69
2022/04/12 10:21:14;;;;;;;10.20;4.50;;;;;;;18.50;27.54;100888.00;5102287;28;20043;-68
2022/04/12 10:23:43;;;;;;;7.50;5.00;;;;;;;18.42;27.69;100885.31;5099989;28;20967;-68
2022/04/12 10:26:09;;;;;;;8.00;5.00;;;;;;;18.27;27.91;100867.09;5098312;28;20030;-68
2022/04/12 10:28:36;;;;;;;6.90;4.57;;;;;;;18.28;27.97;100883.22;5106023;28;20072;-68
2022/04/12 10:31:13;;;;;;;7.75;4.50;;;;;;;18.19;27.88;100878.84;5100036;28;20055;-68
2022/04/12 10:33:39;;;;;;;11.48;6.07;;;;;;;18.13;28.56;100874.09;5084355;28;20040;-69
2022/04/12 10:36:06;;;;;;;6.80;4.90;;;;;;;18.09;28.08;100872.75;5095575;28;20186;-68
2022/04/12 10:38:42;;;;;;;7.70;5.63;;;;;;;18.02;28.68;100877.13;5091623;28;20502;-68
2022/04/12 10:41:15;;;;;;;6.30;4.72;;;;;;;17.94;29.15;100867.13;5088611;28;20062;-68
2022/04/12 10:43:41;;;;;;;6.72;4.57;;;;;;;17.86;28.87;100861.69;5086804;28;20039;-68
2022/04/12 10:46:11;;;;;;;9.10;6.05;;;;;;;17.78;28.55;100850.84;5079110;28;20032;-67
2022/04/12 10:48:37;;;;;;;7.40;5.05;;;;;;;17.68;28.35;100852.00;5096066;28;20028;-70
2022/04/12 10:51:04;;;;;;;11.63;4.90;;;;;;;17.66;28.88;100848.59;5099479;28;20039;-68
2022/04/12 10:53:53;;;;;;;8.57;4.78;;;;;;;17.65;28.57;100855.03;5096602;28;20023;-68
2022/04/12 10:56:23;;;;;;;8.60;5.10;;;;;;;17.61;29.22;100850.97;5089029;28;20494;-69
2022/04/12 10:58:49;;;;;;;14.13;5.20;;;;;;;17.58;29.75;100854.00;5098978;28;20051;-69
2022/04/12 11:01:28;;;;;;;10.57;4.40;;;;;;;17.52;29.91;100843.81;5104804;28;20055;-68
2022/04/12 11:03:55;;;;;;;7.95;5.38;;;;;;;17.46;29.45;100844.47;5103093;28;20062;-69
2022/04/12 11:06:22;;;;;;;10.43;5.60;;;;;;;17.45;29.35;100846.34;5085417;28;20035;-68
2022/04/12 11:08:50;;;;;;;8.05;4.75;;;;;;;17.31;29.52;100840.66;5076016;28;20383;-68
2022/04/12 11:11:39;;;;;;;11.00;4.95;;;;;;;17.35;30.36;100856.44;5078562;28;20031;-68
2022/04/12 11:14:26;;;;;;;9.98;5.30;;;;;;;17.29;31.01;100854.38;5098997;28;20035;-67
2022/04/12 11:16:56;;;;;;;7.22;5.38;;;;;;;17.27;31.29;100848.31;5079931;28;20024;-69
2022/04/12 11:19:22;;;;;;;8.60;5.93;;;;;;;17.23;31.03;100841.53;5078571;28;20396;-69
2022/04/12 11:21:57;;;;;;;9.70;5.53;;;;;;;17.20;30.85;100838.28;5106118;28;20046;-70